createdAt,value
2023-03-17T00:01:41.102Z,98948.47
2023-03-17T00:04:11.614Z,98945.13
2023-03-17T00:06:38.269Z,98937.94
2023-03-17T00:09:10.436Z,98949.00
2023-03-17T00:11:36.851Z,98945.13
2023-03-17T00:14:04.056Z,98936.84
2023-03-17T00:16:32.520Z,98934.06
2023-03-17T00:18:58.988Z,98927.63
2023-03-17T00:21:30.656Z,98916.41
2023-03-17T00:23:58.227Z,98933.47
2023-03-17T00:26:25.194Z,98926.56
2023-03-17T00:28:52.970Z,98924.25
2023-03-17T00:31:22.142Z,98925.81
2023-03-17T00:33:49.646Z,98929.78
2023-03-17T00:36:18.951Z,98919.03
2023-03-17T00:38:46.030Z,98927.03
2023-03-17T00:41:12.780Z,98928.59
2023-03-17T00:43:40.118Z,98920.59
2023-03-17T00:46:16.607Z,98922.47
2023-03-17T00:48:43.930Z,98927.06
2023-03-17T00:51:10.736Z,98913.53
2023-03-17T00:53:37.612Z,98915.69
2023-03-17T00:56:05.137Z,98910.94
2023-03-17T00:58:33.407Z,98900.78
2023-03-17T01:01:00.874Z,98905.56
2023-03-17T01:03:28.254Z,98895.25
2023-03-17T01:05:56.948Z,98890.19
2023-03-17T01:08:23.892Z,98884.66
2023-03-17T01:10:50.364Z,98871.41
2023-03-17T01:13:16.820Z,98888.03
2023-03-17T01:15:46.202Z,98870.50
2023-03-17T01:18:15.869Z,98879.56
2023-03-17T01:20:43.189Z,98875.09
2023-03-17T01:23:10.491Z,98880.94
2023-03-17T01:25:38.569Z,98862.69
2023-03-17T01:28:05.890Z,98846.53
2023-03-17T01:30:38.405Z,98861.00
2023-03-17T01:33:06.753Z,98863.75
2023-03-17T01:35:33.249Z,98835.97
2023-03-17T01:38:00.577Z,98857.94
2023-03-17T01:40:33.255Z,98858.25
2023-03-17T01:43:04.294Z,98854.25
2023-03-17T01:46:09.803Z,98862.09
2023-03-17T01:48:43.028Z,98851.47
2023-03-17T01:51:11.957Z,98843.19
2023-03-17T01:53:39.669Z,98839.22
2023-03-17T01:56:06.537Z,98852.13
2023-03-17T01:58:33.668Z,98848.75
2023-03-17T02:01:00.129Z,98841.97
2023-03-17T02:03:28.048Z,98839.53
2023-03-17T02:05:54.520Z,98827.22
2023-03-17T02:08:21.762Z,98826.16
2023-03-17T02:10:49.603Z,98832.78
2023-03-17T02:13:16.721Z,98832.78
2023-03-17T02:15:48.392Z,98822.94
2023-03-17T02:18:17.134Z,98800.50
2023-03-17T02:20:46.658Z,98823.84
2023-03-17T02:23:15.909Z,98828.63
2023-03-17T02:25:45.028Z,98834.63
2023-03-17T02:28:16.178Z,98833.06
2023-03-17T02:30:43.597Z,98836.16
2023-03-17T02:33:11.897Z,98836.59
2023-03-17T02:35:39.617Z,98826.94
2023-03-17T02:38:06.315Z,98817.09
2023-03-17T02:40:33.159Z,98826.00
2023-03-17T02:42:59.978Z,98826.00
2023-03-17T02:45:27.220Z,98792.19
2023-03-17T02:47:54.238Z,98814.00
2023-03-17T02:50:23.659Z,98812.00
2023-03-17T02:52:50.899Z,98805.72
2023-03-17T02:55:17.866Z,98806.47
2023-03-17T02:57:44.516Z,98811.25
2023-03-17T03:00:11.790Z,98825.38
2023-03-17T03:02:38.398Z,98800.50
2023-03-17T03:05:06.501Z,98818.03
2023-03-17T03:07:33.058Z,98809.72
2023-03-17T03:09:59.526Z,98812.31
2023-03-17T03:12:26.014Z,98795.41
2023-03-17T03:14:52.438Z,98799.88
2023-03-17T03:17:19.267Z,98812.00
2023-03-17T03:19:45.717Z,98797.44
2023-03-17T03:22:12.339Z,98801.72
2023-03-17T03:24:38.786Z,98781.75
2023-03-17T03:27:05.349Z,98785.72
2023-03-17T03:29:32.011Z,98797.13
2023-03-17T03:31:58.458Z,98795.56
2023-03-17T03:34:24.859Z,98806.34
2023-03-17T03:36:51.285Z,98794.97
2023-03-17T03:39:17.745Z,98800.50
2023-03-17T03:41:44.210Z,98806.78
2023-03-17T03:44:11.001Z,98806.34
2023-03-17T03:46:37.428Z,98809.25
2023-03-17T03:49:03.908Z,98800.81
2023-03-17T03:51:30.430Z,98811.25
2023-03-17T03:53:56.834Z,98803.25
2023-03-17T03:56:23.194Z,98780.06
2023-03-17T03:58:50.002Z,98790.38
2023-03-17T04:01:16.407Z,98794.19
2023-03-17T04:03:42.873Z,98791.59
2023-03-17T04:06:09.335Z,98791.75
2023-03-17T04:08:35.745Z,98786.97
2023-03-17T04:11:02.345Z,98788.03
2023-03-17T04:13:28.775Z,98788.34
2023-03-17T04:15:55.249Z,98791.56
2023-03-17T04:18:21.971Z,98798.16
2023-03-17T04:20:48.498Z,98786.03
2023-03-17T04:23:14.932Z,98793.88
2023-03-17T04:25:41.384Z,98791.25
2023-03-17T04:28:08.995Z,98794.00
2023-03-17T04:30:35.441Z,98800.00
2023-03-17T04:33:02.128Z,98791.53
2023-03-17T04:35:28.558Z,98776.94
2023-03-17T04:37:54.995Z,98789.38
2023-03-17T04:40:21.565Z,98786.31
2023-03-17T04:42:47.996Z,98778.78
2023-03-17T04:45:17.558Z,98779.25
2023-03-17T04:47:45.956Z,98778.94
2023-03-17T04:50:13.340Z,98786.31
2023-03-17T04:52:40.335Z,98775.22
2023-03-17T04:55:11.770Z,98789.50
2023-03-17T04:57:38.685Z,98789.19
2023-03-17T05:00:08.276Z,98762.31
2023-03-17T05:02:35.177Z,98777.03
2023-03-17T05:05:02.078Z,98782.09
2023-03-17T05:07:28.516Z,98744.72
2023-03-17T05:09:54.904Z,98756.72
2023-03-17T05:12:22.768Z,98747.56
2023-03-17T05:14:49.374Z,98758.81
2023-03-17T05:17:16.246Z,98759.06
2023-03-17T05:19:43.041Z,98756.91
2023-03-17T05:22:09.789Z,98758.09
2023-03-17T05:24:36.315Z,98762.19
2023-03-17T05:27:03.041Z,98767.22
2023-03-17T05:29:30.011Z,98758.13
2023-03-17T05:31:56.483Z,98743.25
2023-03-17T05:34:22.954Z,98729.75
2023-03-17T05:36:50.416Z,98717.69
2023-03-17T05:39:17.455Z,98700.03
2023-03-17T05:41:45.752Z,98719.16
2023-03-17T05:44:14.600Z,98683.13
2023-03-17T05:46:42.359Z,98718.50
2023-03-17T05:49:09.025Z,98689.28
2023-03-17T05:51:37.325Z,98714.53
2023-03-17T05:54:04.100Z,98687.66
2023-03-17T05:56:35.679Z,98710.06
2023-03-17T05:59:06.423Z,98705.00
2023-03-17T06:01:32.945Z,98708.28
2023-03-17T06:04:00.998Z,98698.16
2023-03-17T06:06:28.124Z,98707.53
2023-03-17T06:08:54.892Z,98717.78
2023-03-17T06:11:21.691Z,98729.75
2023-03-17T06:13:48.162Z,98699.34
2023-03-17T06:16:15.187Z,98739.56
2023-03-17T06:18:41.655Z,98742.47
2023-03-17T06:21:08.194Z,98741.69
2023-03-17T06:23:34.656Z,98752.41
2023-03-17T06:26:01.075Z,98728.34
2023-03-17T06:28:27.586Z,98735.31
2023-03-17T06:30:54.102Z,98735.50
2023-03-17T06:33:20.642Z,98743.59
2023-03-17T06:35:47.465Z,98742.38
2023-03-17T06:38:13.969Z,98711.63
2023-03-17T06:40:40.625Z,98723.19
2023-03-17T06:43:07.548Z,98709.41
2023-03-17T06:45:34.126Z,98733.13
2023-03-17T06:48:01.643Z,98739.56
2023-03-17T06:50:28.225Z,98715.00
2023-03-17T06:52:54.755Z,98738.72
2023-03-17T06:55:21.555Z,98741.34
2023-03-17T06:57:50.845Z,98749.03
2023-03-17T07:00:18.403Z,98743.22
2023-03-17T07:02:44.847Z,98745.09
2023-03-17T07:05:12.628Z,98727.00
2023-03-17T07:07:39.547Z,98726.41
2023-03-17T07:10:07.079Z,98739.06
2023-03-17T07:12:34.351Z,98737.47
2023-03-17T07:15:01.599Z,98733.09
2023-03-17T07:17:28.119Z,98735.41
2023-03-17T07:19:54.558Z,98717.31
2023-03-17T07:22:21.116Z,98730.28
2023-03-17T07:24:49.034Z,98738.75
2023-03-17T07:27:16.571Z,98725.09
2023-03-17T07:29:43.180Z,98729.38
2023-03-17T07:32:10.390Z,98731.59
2023-03-17T07:34:37.360Z,98737.06
2023-03-17T07:37:05.235Z,98739.66
2023-03-17T07:39:31.883Z,98737.84
2023-03-17T07:41:58.385Z,98727.50
2023-03-17T07:44:25.910Z,98742.75
2023-03-17T07:46:52.414Z,98753.06
2023-03-17T07:49:27.626Z,98755.47
2023-03-17T07:52:00.701Z,98747.13
2023-03-17T07:54:27.716Z,98737.56
2023-03-17T07:56:54.167Z,98722.41
2023-03-17T07:59:21.103Z,98733.00
2023-03-17T08:01:47.773Z,98719.03
2023-03-17T08:04:14.706Z,98739.50
2023-03-17T08:06:42.185Z,98738.13
2023-03-17T08:09:09.642Z,98739.63
2023-03-17T08:11:36.102Z,98740.06
2023-03-17T08:14:02.724Z,98740.19
2023-03-17T08:16:30.011Z,98736.00
2023-03-17T08:18:58.810Z,98740.81
2023-03-17T08:21:26.624Z,98692.25
2023-03-17T08:23:54.217Z,98738.22
2023-03-17T08:26:20.703Z,98730.84
2023-03-17T08:28:48.681Z,98751.75
2023-03-17T08:31:18.105Z,98735.47
2023-03-17T08:33:50.012Z,98737.13
2023-03-17T08:36:17.486Z,98735.41
2023-03-17T08:38:44.886Z,98731.66
2023-03-17T08:41:14.723Z,98722.81
2023-03-17T08:43:42.631Z,98732.84
2023-03-17T08:46:15.778Z,98718.63
2023-03-17T08:48:42.863Z,98712.03
2023-03-17T08:51:09.313Z,98720.94
2023-03-17T08:53:36.107Z,98718.69
2023-03-17T08:56:04.701Z,98707.50
2023-03-17T08:58:33.170Z,98688.97
2023-03-17T09:01:01.032Z,98701.69
2023-03-17T09:03:28.119Z,98687.41
2023-03-17T09:05:54.996Z,98711.06
2023-03-17T09:08:21.925Z,98708.75
2023-03-17T09:10:48.786Z,98703.69
2023-03-17T09:13:16.312Z,98685.34
2023-03-17T09:15:42.991Z,98691.16
2023-03-17T09:18:10.509Z,98671.06
2023-03-17T09:20:37.173Z,98682.44
2023-03-17T09:23:08.409Z,98689.22
2023-03-17T09:25:36.286Z,98677.47
2023-03-17T09:28:02.872Z,98688.66
2023-03-17T09:30:29.939Z,98690.19
2023-03-17T09:32:56.770Z,98693.41
2023-03-17T09:35:23.337Z,98686.47
2023-03-17T09:37:50.429Z,98682.03
2023-03-17T09:40:20.086Z,98683.50
2023-03-17T09:43:06.012Z,98682.75
2023-03-17T09:45:38.920Z,98683.41
2023-03-17T09:48:22.896Z,98683.41
2023-03-17T09:50:56.465Z,98681.16
2023-03-17T09:53:49.294Z,98626.75
2023-03-17T09:56:17.415Z,98652.81
2023-03-17T09:59:05.676Z,98652.97
2023-03-17T10:01:32.905Z,98659.59
2023-03-17T10:03:59.409Z,98652.03
2023-03-17T10:06:39.235Z,98663.47
2023-03-17T10:09:26.741Z,98669.59
2023-03-17T10:12:09.963Z,98666.94
2023-03-17T10:14:44.833Z,98676.97
2023-03-17T10:17:22.350Z,98671.91
2023-03-17T10:19:56.784Z,98669.41
2023-03-17T10:22:35.138Z,98653.44
2023-03-17T10:25:10.570Z,98665.50
2023-03-17T10:27:37.502Z,98670.50
2023-03-17T10:30:06.100Z,98665.09
2023-03-17T10:32:37.635Z,98673.91
2023-03-17T10:35:04.732Z,98668.91
2023-03-17T10:37:36.523Z,98657.09
2023-03-17T10:40:10.182Z,98646.38
2023-03-17T10:42:47.561Z,98636.66
2023-03-17T10:45:15.014Z,98639.78
2023-03-17T10:47:47.502Z,98641.75
2023-03-17T10:50:30.032Z,98636.66
2023-03-17T10:53:01.490Z,98631.75
2023-03-17T10:55:31.920Z,98640.59
2023-03-17T10:58:02.350Z,98642.28
2023-03-17T11:00:33.660Z,98631.09
2023-03-17T11:03:12.299Z,98640.69
2023-03-17T11:05:40.143Z,98635.28
2023-03-17T11:08:18.712Z,98627.66
2023-03-17T11:10:45.753Z,98629.28
2023-03-17T11:13:18.372Z,98616.84
2023-03-17T11:15:53.299Z,98616.75
2023-03-17T11:18:23.168Z,98615.72
2023-03-17T11:21:13.119Z,98619.91
2023-03-17T11:23:39.613Z,98608.75
2023-03-17T11:26:18.924Z,98612.66
2023-03-17T11:28:56.996Z,98606.28
2023-03-17T11:31:31.916Z,98596.72
2023-03-17T11:34:05.827Z,98602.06
2023-03-17T11:36:58.286Z,98592.88
2023-03-17T11:39:27.415Z,98608.09
2023-03-17T11:41:57.113Z,98604.06
2023-03-17T11:44:49.000Z,98603.88
2023-03-17T11:47:21.309Z,98602.34
2023-03-17T11:50:02.102Z,98609.84
2023-03-17T11:52:33.106Z,98603.06
2023-03-17T11:55:23.351Z,98606.66
2023-03-17T11:57:59.302Z,98599.28
2023-03-17T12:00:31.027Z,98615.00
2023-03-17T12:03:06.242Z,98609.69
2023-03-17T12:05:34.952Z,98615.53
2023-03-17T12:08:16.580Z,98606.19
2023-03-17T12:10:46.976Z,98600.16
2023-03-17T12:13:15.098Z,98598.38
2023-03-17T12:15:45.529Z,98598.63
2023-03-17T12:18:24.010Z,98601.88
2023-03-17T12:20:58.494Z,98598.75
2023-03-17T12:23:48.306Z,98592.22
2023-03-17T12:26:16.469Z,98578.28
2023-03-17T12:28:57.409Z,98589.22
2023-03-17T12:31:32.428Z,98577.97
2023-03-17T12:34:21.520Z,98575.63
2023-03-17T12:36:51.462Z,98572.31
2023-03-17T12:39:33.134Z,98563.97
2023-03-17T12:42:09.974Z,98573.53
2023-03-17T12:45:02.259Z,98561.97
2023-03-17T12:47:52.752Z,98571.81
2023-03-17T12:50:32.592Z,98568.31
2023-03-17T12:53:24.692Z,98571.47
2023-03-17T12:55:52.757Z,98581.06
2023-03-17T12:58:29.850Z,98566.13
2023-03-17T13:01:08.766Z,98576.13
2023-03-17T13:03:38.779Z,98568.78
2023-03-17T13:06:08.600Z,98556.69
2023-03-17T13:08:38.085Z,98550.28
2023-03-17T13:11:29.548Z,98567.22
2023-03-17T13:14:25.868Z,98560.75
2023-03-17T13:17:02.974Z,98556.41
2023-03-17T13:19:33.836Z,98556.56
2023-03-17T13:22:00.563Z,98549.63
2023-03-17T13:24:40.594Z,98552.88
2023-03-17T13:27:11.570Z,98551.41
2023-03-17T13:29:41.977Z,98549.19
2023-03-17T13:32:17.343Z,98544.19
2023-03-17T13:35:16.653Z,98541.50
2023-03-17T13:37:52.206Z,98539.88
2023-03-17T13:40:22.041Z,98532.22
2023-03-17T13:42:54.113Z,98532.31
2023-03-17T13:45:37.321Z,98533.41
2023-03-17T13:48:36.260Z,98530.84
2023-03-17T13:51:14.473Z,98532.22
2023-03-17T13:53:46.963Z,98523.94
2023-03-17T13:56:36.249Z,98541.19
2023-03-17T13:59:03.701Z,98528.06
2023-03-17T14:01:41.906Z,98534.88
2023-03-17T14:04:18.807Z,98527.34
2023-03-17T14:06:45.737Z,98528.81
2023-03-17T14:09:28.323Z,98522.63
2023-03-17T14:11:57.330Z,98515.19
2023-03-17T14:14:32.965Z,98518.28
2023-03-17T14:17:16.661Z,98521.22
2023-03-17T14:20:00.798Z,98520.50
2023-03-17T14:22:27.691Z,98514.03
2023-03-17T14:24:55.966Z,98498.34
2023-03-17T14:27:24.006Z,98505.63
2023-03-17T14:29:52.249Z,98504.25
2023-03-17T14:32:21.261Z,98510.84
2023-03-17T14:34:58.492Z,98479.88
2023-03-17T14:37:25.190Z,98497.44
2023-03-17T14:39:54.159Z,98487.56
2023-03-17T14:42:29.469Z,98485.06
2023-03-17T14:45:08.464Z,98480.53
2023-03-17T14:47:40.322Z,98486.13
2023-03-17T14:50:17.396Z,98482.47
2023-03-17T14:52:44.183Z,98484.97
2023-03-17T14:55:15.507Z,98478.59
2023-03-17T14:57:42.082Z,98477.38
2023-03-17T15:00:21.793Z,98471.75
2023-03-17T15:02:56.458Z,98474.28
2023-03-17T15:05:38.646Z,98469.41
2023-03-17T15:08:39.572Z,98471.03
2023-03-17T15:11:07.074Z,98472.41
2023-03-17T15:13:36.344Z,98470.50
2023-03-17T15:16:18.194Z,98472.06
2023-03-17T15:18:44.999Z,98473.16
2023-03-17T15:21:29.861Z,98472.28
2023-03-17T15:23:56.410Z,98469.69
2023-03-17T15:26:31.612Z,98470.84
2023-03-17T15:28:59.753Z,98474.16
2023-03-17T15:31:29.462Z,98479.66
2023-03-17T15:33:56.356Z,98479.34
2023-03-17T15:36:32.154Z,98475.03
2023-03-17T15:38:59.410Z,98457.38
2023-03-17T15:41:26.027Z,98466.03
2023-03-17T15:43:53.633Z,98470.50
2023-03-17T15:46:27.918Z,98468.72
2023-03-17T15:48:55.134Z,98463.22
2023-03-17T15:51:22.049Z,98464.41
2023-03-17T15:53:48.840Z,98464.72
2023-03-17T15:56:18.964Z,98450.63
2023-03-17T15:58:48.072Z,98452.44
2023-03-17T16:01:15.677Z,98455.81
2023-03-17T16:03:42.487Z,98457.44
2023-03-17T16:06:21.223Z,98445.31
2023-03-17T16:08:49.267Z,98436.88
2023-03-17T16:11:27.815Z,98437.31
2023-03-17T16:13:59.042Z,98439.47
2023-03-17T16:16:39.935Z,98440.47
2023-03-17T16:19:17.638Z,98443.69
2023-03-17T16:21:44.306Z,98450.06
2023-03-17T16:24:18.749Z,98429.69
2023-03-17T16:26:45.478Z,98453.22
2023-03-17T16:29:15.630Z,98448.31
2023-03-17T16:31:43.973Z,98454.03
2023-03-17T16:34:21.197Z,98454.44
2023-03-17T16:36:48.456Z,98460.88
2023-03-17T16:39:22.954Z,98450.00
2023-03-17T16:41:50.328Z,98439.41
2023-03-17T16:44:18.454Z,98436.75
2023-03-17T16:46:45.208Z,98446.53
2023-03-17T16:49:16.107Z,98449.44
2023-03-17T16:51:43.356Z,98447.00
2023-03-17T16:54:10.714Z,98430.53
2023-03-17T16:56:39.150Z,98441.75
2023-03-17T16:59:10.412Z,98450.66
2023-03-17T17:01:36.989Z,98444.66
2023-03-17T17:04:03.466Z,98446.88
2023-03-17T17:06:29.870Z,98455.59
2023-03-17T17:08:56.350Z,98458.38
2023-03-17T17:11:22.789Z,98462.75
2023-03-17T17:13:49.909Z,98449.72
2023-03-17T17:16:26.530Z,98454.56
2023-03-17T17:18:53.474Z,98469.41
2023-03-17T17:21:19.988Z,98464.69
2023-03-17T17:23:46.626Z,98467.31
2023-03-17T17:26:13.172Z,98459.78
2023-03-17T17:28:40.366Z,98469.47
2023-03-17T17:31:08.498Z,98468.53
2023-03-17T17:33:36.250Z,98468.03
2023-03-17T17:36:04.675Z,98454.19
2023-03-17T17:38:31.709Z,98456.78
2023-03-17T17:40:59.897Z,98466.97
2023-03-17T17:43:26.465Z,98455.28
2023-03-17T17:45:53.230Z,98468.06
2023-03-17T17:48:23.455Z,98461.81
2023-03-17T17:50:51.015Z,98458.06
2023-03-17T17:53:18.061Z,98463.94
2023-03-17T17:55:45.993Z,98466.56
2023-03-17T17:58:25.188Z,98467.31
2023-03-17T18:00:54.055Z,98465.78
2023-03-17T18:03:24.509Z,98472.97
2023-03-17T18:05:55.252Z,98467.84
2023-03-17T18:08:22.122Z,98470.16
2023-03-17T18:10:50.759Z,98472.44
2023-03-17T18:13:18.283Z,98468.34
2023-03-17T18:15:44.741Z,98477.31
2023-03-17T18:18:11.208Z,98468.38
2023-03-17T18:20:38.234Z,98464.84
2023-03-17T18:23:04.724Z,98473.75
2023-03-17T18:25:31.282Z,98458.56
2023-03-17T18:27:57.834Z,98457.56
2023-03-17T18:30:26.835Z,98462.09
2023-03-17T18:32:55.870Z,98443.16
2023-03-17T18:35:23.547Z,98466.19
2023-03-17T18:37:50.776Z,98465.19
2023-03-17T18:40:19.082Z,98474.09
2023-03-17T18:42:46.296Z,98467.50
2023-03-17T18:45:14.002Z,98471.88
2023-03-17T18:47:41.875Z,98462.00
2023-03-17T18:50:10.204Z,98475.47
2023-03-17T18:52:38.546Z,98467.84
2023-03-17T18:55:06.524Z,98462.50
2023-03-17T18:57:33.320Z,98458.44
2023-03-17T18:59:59.819Z,98453.66
2023-03-17T19:02:26.517Z,98462.56
2023-03-17T19:04:53.179Z,98452.50
2023-03-17T19:07:19.838Z,98473.81
2023-03-17T19:09:46.274Z,98457.06
2023-03-17T19:12:13.489Z,98464.44
2023-03-17T19:14:40.355Z,98468.00
2023-03-17T19:17:07.532Z,98457.63
2023-03-17T19:19:35.270Z,98469.28
2023-03-17T19:22:01.990Z,98468.50
2023-03-17T19:24:28.711Z,98466.22
2023-03-17T19:26:55.227Z,98472.59
2023-03-17T19:29:21.808Z,98469.28
2023-03-17T19:31:48.897Z,98471.03
2023-03-17T19:34:15.523Z,98478.19
2023-03-17T19:36:45.726Z,98473.88
2023-03-17T19:39:13.147Z,98463.22
2023-03-17T19:41:40.017Z,98464.72
2023-03-17T19:44:06.827Z,98462.97
2023-03-17T19:46:34.388Z,98461.94
2023-03-17T19:49:01.574Z,98468.81
2023-03-17T19:51:28.408Z,98460.69
2023-03-17T19:53:55.546Z,98471.38
2023-03-17T19:56:23.179Z,98466.28
2023-03-17T19:58:50.054Z,98456.66
2023-03-17T20:01:17.171Z,98470.38
2023-03-17T20:03:43.798Z,98465.56
2023-03-17T20:06:11.984Z,98465.31
2023-03-17T20:08:39.547Z,98464.06
2023-03-17T20:11:06.660Z,98456.72
2023-03-17T20:13:34.733Z,98452.13
2023-03-17T20:16:01.892Z,98465.84
2023-03-17T20:18:29.107Z,98456.69
2023-03-17T20:20:57.485Z,98441.25
2023-03-17T20:23:25.097Z,98454.44
2023-03-17T20:25:52.590Z,98467.63
2023-03-17T20:28:21.399Z,98458.00
2023-03-17T20:30:49.286Z,98461.28
2023-03-17T20:33:16.622Z,98459.00
2023-03-17T20:35:46.562Z,98461.28
2023-03-17T20:38:14.610Z,98463.84
2023-03-17T20:40:41.987Z,98460.31
2023-03-17T20:43:08.547Z,98454.50
2023-03-17T20:45:35.064Z,98465.16
2023-03-17T20:48:02.020Z,98466.16
2023-03-17T20:50:29.432Z,98466.91
2023-03-17T20:52:55.869Z,98470.75
2023-03-17T20:55:22.347Z,98464.63
2023-03-17T20:57:49.832Z,98457.03
2023-03-17T21:00:19.999Z,98472.28
2023-03-17T21:02:50.597Z,98464.66
2023-03-17T21:05:20.308Z,98453.25
2023-03-17T21:07:48.359Z,98444.59
2023-03-17T21:10:15.969Z,98450.69
2023-03-17T21:12:42.878Z,98463.13
2023-03-17T21:15:10.263Z,98455.78
2023-03-17T21:17:38.044Z,98457.81
2023-03-17T21:20:10.007Z,98458.84
2023-03-17T21:22:37.015Z,98467.44
2023-03-17T21:25:04.609Z,98467.69
2023-03-17T21:27:31.904Z,98456.03
2023-03-17T21:29:58.433Z,98457.28
2023-03-17T21:32:25.007Z,98452.47
2023-03-17T21:34:51.577Z,98460.59
2023-03-17T21:37:18.730Z,98457.28
2023-03-17T21:39:45.789Z,98455.78
2023-03-17T21:42:12.445Z,98460.13
2023-03-17T21:44:39.527Z,98451.75
2023-03-17T21:47:05.902Z,98449.69
2023-03-17T21:49:32.343Z,98458.88
2023-03-17T21:51:58.816Z,98460.63
2023-03-17T21:54:25.584Z,98464.94
2023-03-17T21:56:53.485Z,98463.16
2023-03-17T21:59:20.932Z,98463.16
2023-03-17T22:01:47.883Z,98465.44
2023-03-17T22:04:14.314Z,98459.38
2023-03-17T22:06:41.150Z,98448.19
2023-03-17T22:09:08.590Z,98456.81
2023-03-17T22:11:34.964Z,98458.84
2023-03-17T22:14:01.803Z,98454.03
2023-03-17T22:16:28.237Z,98455.78
2023-03-17T22:18:54.937Z,98445.41
2023-03-17T22:21:21.644Z,98459.88
2023-03-17T22:23:48.200Z,98452.00
2023-03-17T22:26:17.354Z,98465.19
2023-03-17T22:28:44.749Z,98456.81
2023-03-17T22:31:16.547Z,98457.84
2023-03-17T22:33:44.083Z,98456.59
2023-03-17T22:36:11.167Z,98459.88
2023-03-17T22:38:38.342Z,98457.56
2023-03-17T22:41:08.000Z,98465.97
2023-03-17T22:43:36.122Z,98470.75
2023-03-17T22:46:02.985Z,98458.59
2023-03-17T22:48:29.541Z,98474.56
2023-03-17T22:50:56.056Z,98461.63
2023-03-17T22:53:22.532Z,98450.47
2023-03-17T22:55:48.954Z,98469.00
2023-03-17T22:58:15.371Z,98462.91
2023-03-17T23:00:42.394Z,98469.47
2023-03-17T23:03:08.838Z,98472.03
2023-03-17T23:05:35.329Z,98464.91
2023-03-17T23:08:01.879Z,98465.44
2023-03-17T23:10:28.536Z,98478.59
2023-03-17T23:12:55.211Z,98478.13
2023-03-17T23:15:21.846Z,98480.16
2023-03-17T23:17:48.723Z,98488.25
2023-03-17T23:20:15.735Z,98485.97
2023-03-17T23:22:42.268Z,98487.47
2023-03-17T23:25:09.466Z,98488.25
2023-03-17T23:27:36.040Z,98478.34
2023-03-17T23:30:03.676Z,98490.28
2023-03-17T23:32:30.307Z,98496.09
2023-03-17T23:34:56.748Z,98486.22
2023-03-17T23:37:23.613Z,98498.16
2023-03-17T23:39:50.010Z,98487.22
2023-03-17T23:42:17.231Z,98499.91
2023-03-17T23:44:45.057Z,98496.88
2023-03-17T23:47:11.710Z,98489.00
2023-03-17T23:49:38.793Z,98496.38
2023-03-17T23:52:05.382Z,98489.78
2023-03-17T23:54:32.026Z,98487.25
2023-03-17T23:56:58.534Z,98494.09
2023-03-17T23:59:25.280Z,98492.84
